Atlanta, KS

7:08 AM CDT on September 21, 2014 (GMT -0500)
Atlanta Weather | Change Station
CLOSE
Current Station
Personal Weather Station
Location: Atlanta, KS
Elevation: 1447 ft
Nearby Weather Stations

Elev 1447 ft 37.43 °N, 96.76 °W | Updated 14 minutes ago

Partly Cloudy
Partly Cloudy
63.5 °F
Feels Like 63.5 °F
N
7.3
Wind Variable Wind from ENE

Today
High -- | Low -- °F
--% Chance of Precip.
Yesterday
High -- | Low -- °F
Precip. -- in
7:14 AM 7:25 PM
Waning Crescent, 7% visible
Pressure 30.09 in
Visibility 10.0 miles
Clouds Clear
Dew Point 58 °F
Humidity 83%
Rainfall 0.00 in
Snow Depth Not available.
UV 0 out of 12
Pollen 5.60 out of 12
Air Quality Not available.
Flu Activity Not available.
METAR KWLD 211154Z AUTO 05012KT 10SM CLR 21/17 A3012 RMK AO2 LTG DSNT SE SLP188 60043 70043 T02110172 10239 20211 53015

More Conditions Fewer Conditions

Pressure 30.09 in
Visibility 10.0 miles
Clouds Clear
Dew Point 58 °F
Humidity 83%
Rainfall 0.00 in
Snow Depth Not available.
UV 0 out of 12
Pollen 5.60 out of 12
Air Quality Not available.
Flu Activity Not available.
METAR KWLD 211154Z AUTO 05012KT 10SM CLR 21/17 A3012 RMK AO2 LTG DSNT SE SLP188 60043 70043 T02110172 10239 20211 53015

More Conditions Fewer Conditions

10-Day Weather Forecast

Almanac

Astronomy

Sep. 21, 2014 Rise Set
Actual Time 7:14 AM CDT 7:25 PM CDT
Civil Twilight 6:47 AM CDT 7:51 PM CDT
Nautical Twilight 6:17 AM CDT 8:22 PM CDT
Astronomical Twilight 5:46 AM CDT 8:52 PM CDT
Moon 4:51 AM CDT 6:00 PM CDT
Length of Visible Light 13h 03m
Length of Day
12h 11m
Tomorrow will be 2m 23s shorter.
Waning Crescent, 7% of the Moon is Illuminated
Today
Waning Crescent
Sep 24
New
Oct 1
First Quarter
Oct 8
Full
Oct 15
Last Quarter

Today's Extremes

State Highs State Lows

Community

WunderPhotos

Upload Photos

1,755,126 photos uploaded!

Nearby

Snow Depth

Station Depth Elevation
No new snow has been reported.

Earthquake Activity

City Distance Mag. Time & Date
Medford, Oklahoma 67 miles 3.2 2:10 AM CDT
2014-09-20
Luther, Oklahoma 123 miles 2.7 4:47 PM CDT
2014-09-19
Guthrie, Oklahoma 117 miles 3.6 12:23 PM CDT
2014-09-19
Jones, Oklahoma 131 miles 2.8 1:13 AM CDT
2014-09-19
Minimum magnitude displayed is 2.5.

Coastal Water Temperatures

Place Temperature
No Stations Reporting

Nearby Weather Stations